Terminal Aerodrome Forecast
Issued by NWS

Current Version | Previous Version | Text Only | Print | Product List | Glossary On
Versions: 1 2 3 4 5 6 7 8 9 10 11 12 13 14 15 16 17 18
000
FTUS46 KSTO 191757
TAFSMF
TAF
KSMF 191757Z 1918/2018 16011KT P6SM VCSH BKN050
     FM192200 16012G20KT 4SM -RA OVC050
     FM200400 15015G25KT 4SM -RA OVC025
     FM201000 16021G30KT P6SM RA OVC015=

USA.gov is the U.S. government's official web portal to all federal, state and local government web resources and services.